Bila Tserkva, Ukraine

11:42 AM EET on December 09, 2016 (GMT +0200)
Zhuliany | | Change Station

Elev 584 ft 50.40 °N, 30.45 °E | Updated 12 minutes ago

Overcast
Overcast
41 °F
Feels Like 34 °F
N
13
Wind Variable Wind from West

Today
High -- | Low -- °F
--% Chance of Precip.
Yesterday
High -- | Low -- °F
Precip. -- in
Pressure 29.80 in
Visibility 4.3 miles
Clouds Overcast 700 ft
Windchill 34 °F
Dew Point 39 °F
Humidity 93%
Rainfall 0.00 in
Snow Depth Not available.
7:44 AM 3:58 PM
Waxing Gibbous, 72% visible
METAR UKKK 090930Z 27006MPS 7000 OVC007 05/04 Q1009 R26/290145 NOSIG
Pressure 29.80 in
Visibility 4.3 miles
Clouds Overcast 700 ft
Windchill 34 °F
Dew Point 39 °F
Humidity 93%
Rainfall 0.00 in
Snow Depth Not available.
7:44 AM 3:58 PM
Waxing Gibbous, 72% visible
METAR UKKK 090930Z 27006MPS 7000 OVC007 05/04 Q1009 R26/290145 NOSIG

10-Day Weather Forecast

×

Almanac

Astronomy

Dec. 09, 2016 Rise Set
Actual Time
Civil Twilight
Nautical Twilight
Astronomical Twilight
Moon
Length of Visible Light
Length of Day
Tomorrow will be .
, % of the Moon is Illuminated

Today's Extremes

Country Highs Country Lows

Community

WunderPhotos

Upload Photos

1,956,371 photos uploaded!

WunderBlog® & News

Nearby

Air Quality

  Air Quality AQ Index Pollutant
Not available.

Snow Depth

Station Depth Elevation

Earthquake Activity

City Distance Mag. Time & Date
Minimum magnitude displayed is 2.5.

Coastal Water Temperatures

Place Temperature

Stations

Nearby Weather Stations

Station Location Temp. Windchill Dew Point Humidity Wind Precip. Elev Updated Type